ADDS METAR Data INFO
IDs: Format: Raw Decoded Include TAF

Data at: 0855 UTC 27 Jun 2017

KGGG 270753Z AUTO 00000KT 10SM FEW038 22/21 A3004 RMK AO2 SLP164 T02220211
KGGG 270653Z AUTO 00000KT 10SM BKN038 23/22 A3004 RMK AO2 SLP166 T02280217

KGGG 270521Z 2706/2806 VRB05KT P6SM FEW040 BKN250
  FM270900 00000KT P6SM FEW030 SCT070 BKN250
  TEMPO 2710/2713 6SM BR
  FM271500 11007KT P6SM SCT040 SCT080 SCT250


KTYR 270753Z AUTO 14004KT 10SM OVC060 24/22 A3004 RMK AO2 SLP164 T02390222
KTYR 270653Z AUTO 14005KT 10SM FEW060 24/22 A3005 RMK AO2 SLP167 T02390217

KTYR 270521Z 2706/2806 VRB04KT P6SM FEW050 BKN250
  FM270900 VRB03KT P6SM FEW025 SCT100 BKN250
  TEMPO 2710/2713 4SM BR
  FM271500 10007KT P6SM SCT040 SCT080 SCT250



Page loaded:  08:55 UTC  |   01:55 AM Pacific  |   02:55 AM Mountain  |   03:55 AM Central  |   04:55 AM Eastern

 

ADVISORIES

FORECASTS

FORECASTS

OBSERVATIONS

USER TOOLS

ABOUT US